sensor_id;sensor_type;location;lat;lon;timestamp;pressure;altitude;pressure_sealevel;temperature;humidity
18527;BME280;9393;42.158;24.748;2023-07-20T00:00:41;99103.19;;;29.69;47.53
18527;BME280;9393;42.158;24.748;2023-07-20T00:03:47;99112.09;;;29.59;47.92
18527;BME280;9393;42.158;24.748;2023-07-20T00:06:57;99113.56;;;29.95;47.03
18527;BME280;9393;42.158;24.748;2023-07-20T00:10:01;99125.91;;;30.01;46.62
18527;BME280;9393;42.158;24.748;2023-07-20T00:13:05;99128.53;;;30.12;46.45
18527;BME280;9393;42.158;24.748;2023-07-20T00:16:09;99121.75;;;29.65;46.88
18527;BME280;9393;42.158;24.748;2023-07-20T00:19:14;99105.16;;;29.58;47.08
18527;BME280;9393;42.158;24.748;2023-07-20T00:22:19;99069.25;;;29.83;45.71
18527;BME280;9393;42.158;24.748;2023-07-20T00:25:23;99053.25;;;29.63;46.13
18527;BME280;9393;42.158;24.748;2023-07-20T00:28:27;99042.19;;;29.69;46.07
18527;BME280;9393;42.158;24.748;2023-07-20T00:31:31;99033.03;;;29.75;45.40
18527;BME280;9393;42.158;24.748;2023-07-20T00:34:36;99038.84;;;29.92;44.91
18527;BME280;9393;42.158;24.748;2023-07-20T00:37:40;99031.28;;;29.99;43.92
18527;BME280;9393;42.158;24.748;2023-07-20T00:40:44;99029.22;;;30.20;43.41
18527;BME280;9393;42.158;24.748;2023-07-20T00:43:48;99006.47;;;30.07;44.15
18527;BME280;9393;42.158;24.748;2023-07-20T00:46:53;99004.34;;;30.04;43.64
18527;BME280;9393;42.158;24.748;2023-07-20T00:49:59;99008.31;;;30.12;43.55
18527;BME280;9393;42.158;24.748;2023-07-20T00:53:07;99022.56;;;30.46;42.86
18527;BME280;9393;42.158;24.748;2023-07-20T00:56:11;99027.28;;;30.60;42.53
18527;BME280;9393;42.158;24.748;2023-07-20T00:59:15;99022.72;;;30.55;42.09
18527;BME280;9393;42.158;24.748;2023-07-20T01:02:19;99028.88;;;30.61;41.98
18527;BME280;9393;42.158;24.748;2023-07-20T01:05:32;99030.28;;;30.82;41.77
18527;BME280;9393;42.158;24.748;2023-07-20T01:08:43;99025.28;;;30.70;42.12
18527;BME280;9393;42.158;24.748;2023-07-20T01:11:53;99015.13;;;30.86;41.82
18527;BME280;9393;42.158;24.748;2023-07-20T01:14:58;99014.00;;;30.68;41.91
18527;BME280;9393;42.158;24.748;2023-07-20T01:18:02;99000.34;;;30.60;41.71
18527;BME280;9393;42.158;24.748;2023-07-20T01:21:11;98989.97;;;30.48;42.08
18527;BME280;9393;42.158;24.748;2023-07-20T01:24:37;98991.00;;;30.52;41.77
18527;BME280;9393;42.158;24.748;2023-07-20T01:28:07;98986.31;;;30.63;41.81
18527;BME280;9393;42.158;24.748;2023-07-20T01:31:21;98987.13;;;30.63;41.63
18527;BME280;9393;42.158;24.748;2023-07-20T01:34:27;98984.94;;;30.65;41.55
18527;BME280;9393;42.158;24.748;2023-07-20T01:37:32;98975.16;;;30.74;41.83
18527;BME280;9393;42.158;24.748;2023-07-20T01:40:38;98982.81;;;30.86;41.63
18527;BME280;9393;42.158;24.748;2023-07-20T01:43:42;98985.69;;;30.94;41.01
18527;BME280;9393;42.158;24.748;2023-07-20T01:46:48;98982.41;;;31.02;41.39
18527;BME280;9393;42.158;24.748;2023-07-20T01:49:52;98983.50;;;31.01;41.46
18527;BME280;9393;42.158;24.748;2023-07-20T01:52:55;98977.47;;;31.10;41.63
18527;BME280;9393;42.158;24.748;2023-07-20T01:56:00;98973.03;;;31.19;41.11
18527;BME280;9393;42.158;24.748;2023-07-20T01:59:04;98983.72;;;31.24;40.27
18527;BME280;9393;42.158;24.748;2023-07-20T02:02:09;98979.22;;;31.19;40.69
18527;BME280;9393;42.158;24.748;2023-07-20T02:05:13;98984.16;;;31.12;41.09
18527;BME280;9393;42.158;24.748;2023-07-20T02:08:17;98983.00;;;31.18;40.93
18527;BME280;9393;42.158;24.748;2023-07-20T02:11:21;98987.81;;;31.21;40.26
18527;BME280;9393;42.158;24.748;2023-07-20T02:14:25;98981.69;;;31.16;40.53
18527;BME280;9393;42.158;24.748;2023-07-20T02:17:32;98995.16;;;31.16;40.84
18527;BME280;9393;42.158;24.748;2023-07-20T02:20:37;98995.88;;;31.02;41.31
18527;BME280;9393;42.158;24.748;2023-07-20T02:23:41;98998.50;;;31.08;41.13
18527;BME280;9393;42.158;24.748;2023-07-20T02:26:45;98991.59;;;31.20;41.23
18527;BME280;9393;42.158;24.748;2023-07-20T02:29:49;98992.38;;;31.21;40.99
18527;BME280;9393;42.158;24.748;2023-07-20T02:32:55;99002.94;;;31.17;41.13
18527;BME280;9393;42.158;24.748;2023-07-20T02:36:01;98995.44;;;31.14;41.13
18527;BME280;9393;42.158;24.748;2023-07-20T02:39:04;98981.06;;;31.00;41.52
18527;BME280;9393;42.158;24.748;2023-07-20T02:42:09;98977.34;;;31.20;41.49
18527;BME280;9393;42.158;24.748;2023-07-20T02:45:13;98988.03;;;31.25;41.72
18527;BME280;9393;42.158;24.748;2023-07-20T02:48:18;98993.06;;;31.13;41.69
18527;BME280;9393;42.158;24.748;2023-07-20T02:51:22;98995.44;;;30.90;42.66
18527;BME280;9393;42.158;24.748;2023-07-20T02:54:29;98994.16;;;30.83;43.00
18527;BME280;9393;42.158;24.748;2023-07-20T02:57:33;98988.84;;;30.78;43.49
18527;BME280;9393;42.158;24.748;2023-07-20T03:00:38;98980.31;;;30.94;43.29
18527;BME280;9393;42.158;24.748;2023-07-20T03:03:43;98977.97;;;30.88;42.80
18527;BME280;9393;42.158;24.748;2023-07-20T03:06:49;98976.31;;;30.92;42.87
18527;BME280;9393;42.158;24.748;2023-07-20T03:09:53;98976.22;;;31.02;42.39
18527;BME280;9393;42.158;24.748;2023-07-20T03:12:57;98982.41;;;31.02;42.48
18527;BME280;9393;42.158;24.748;2023-07-20T03:16:01;98986.19;;;31.01;42.49
18527;BME280;9393;42.158;24.748;2023-07-20T03:19:07;98981.25;;;31.09;42.56
18527;BME280;9393;42.158;24.748;2023-07-20T03:22:11;98977.53;;;31.04;42.33
18527;BME280;9393;42.158;24.748;2023-07-20T03:25:15;98976.81;;;30.94;42.69
18527;BME280;9393;42.158;24.748;2023-07-20T03:28:21;98974.97;;;30.89;42.81
18527;BME280;9393;42.158;24.748;2023-07-20T03:31:25;98977.44;;;30.62;42.60
18527;BME280;9393;42.158;24.748;2023-07-20T03:34:30;98970.84;;;31.02;42.39
18527;BME280;9393;42.158;24.748;2023-07-20T03:37:34;98970.63;;;31.17;41.86
18527;BME280;9393;42.158;24.748;2023-07-20T03:40:38;98965.44;;;31.02;42.23
18527;BME280;9393;42.158;24.748;2023-07-20T03:43:42;98960.28;;;31.05;42.08
18527;BME280;9393;42.158;24.748;2023-07-20T03:46:46;98958.16;;;31.02;42.18
18527;BME280;9393;42.158;24.748;2023-07-20T03:49:51;98962.81;;;30.97;43.29
18527;BME280;9393;42.158;24.748;2023-07-20T03:52:55;98951.19;;;31.01;43.55
18527;BME280;9393;42.158;24.748;2023-07-20T03:55:59;98957.16;;;31.36;42.66
18527;BME280;9393;42.158;24.748;2023-07-20T03:59:03;98964.06;;;31.42;42.59
18527;BME280;9393;42.158;24.748;2023-07-20T04:02:07;98969.63;;;31.13;43.27
18527;BME280;9393;42.158;24.748;2023-07-20T04:05:12;98970.06;;;31.39;43.01
18527;BME280;9393;42.158;24.748;2023-07-20T04:08:16;98971.97;;;31.57;42.55
18527;BME280;9393;42.158;24.748;2023-07-20T04:11:20;98971.63;;;31.64;42.07
18527;BME280;9393;42.158;24.748;2023-07-20T04:14:23;98966.41;;;31.30;42.34
18527;BME280;9393;42.158;24.748;2023-07-20T04:17:27;98968.22;;;31.34;42.36
18527;BME280;9393;42.158;24.748;2023-07-20T04:20:32;98977.69;;;31.13;42.75
18527;BME280;9393;42.158;24.748;2023-07-20T04:23:36;98983.03;;;31.37;41.87
18527;BME280;9393;42.158;24.748;2023-07-20T04:26:40;98990.53;;;30.97;43.13
18527;BME280;9393;42.158;24.748;2023-07-20T04:29:44;98981.72;;;30.68;43.69
18527;BME280;9393;42.158;24.748;2023-07-20T04:32:48;98996.50;;;30.89;43.23
18527;BME280;9393;42.158;24.748;2023-07-20T04:35:54;99001.91;;;30.89;42.97
18527;BME280;9393;42.158;24.748;2023-07-20T04:39:04;98995.16;;;30.92;43.44
18527;BME280;9393;42.158;24.748;2023-07-20T04:42:30;98993.41;;;31.06;43.32
18527;BME280;9393;42.158;24.748;2023-07-20T04:45:34;98999.78;;;30.86;44.13
18527;BME280;9393;42.158;24.748;2023-07-20T04:48:38;99005.16;;;31.34;42.96
18527;BME280;9393;42.158;24.748;2023-07-20T04:51:45;99007.16;;;30.76;44.44
18527;BME280;9393;42.158;24.748;2023-07-20T04:54:49;99013.03;;;31.30;43.79
18527;BME280;9393;42.158;24.748;2023-07-20T04:57:54;99018.88;;;31.14;43.93
18527;BME280;9393;42.158;24.748;2023-07-20T05:00:59;99021.78;;;31.41;43.18
18527;BME280;9393;42.158;24.748;2023-07-20T05:04:04;99005.47;;;31.09;44.07
18527;BME280;9393;42.158;24.748;2023-07-20T05:07:12;99014.16;;;30.77;44.80
18527;BME280;9393;42.158;24.748;2023-07-20T05:10:16;99009.78;;;31.10;44.38
18527;BME280;9393;42.158;24.748;2023-07-20T05:13:20;99016.41;;;30.93;44.57
18527;BME280;9393;42.158;24.748;2023-07-20T05:16:24;99008.19;;;31.27;43.71
18527;BME280;9393;42.158;24.748;2023-07-20T05:19:30;99009.19;;;31.55;43.48
18527;BME280;9393;42.158;24.748;2023-07-20T05:22:36;99005.94;;;31.34;44.05
18527;BME280;9393;42.158;24.748;2023-07-20T05:25:42;98994.94;;;31.54;43.40
18527;BME280;9393;42.158;24.748;2023-07-20T05:28:47;99001.38;;;32.10;42.67
18527;BME280;9393;42.158;24.748;2023-07-20T05:31:51;99001.03;;;32.30;42.29
18527;BME280;9393;42.158;24.748;2023-07-20T05:34:55;98989.31;;;31.70;42.85
18527;BME280;9393;42.158;24.748;2023-07-20T05:38:01;98993.13;;;32.20;41.63
18527;BME280;9393;42.158;24.748;2023-07-20T05:41:06;98989.16;;;32.44;40.89
18527;BME280;9393;42.158;24.748;2023-07-20T05:44:12;98991.69;;;32.41;41.15
18527;BME280;9393;42.158;24.748;2023-07-20T05:47:17;98985.59;;;32.90;40.67
18527;BME280;9393;42.158;24.748;2023-07-20T05:50:21;98983.72;;;33.18;39.17
18527;BME280;9393;42.158;24.748;2023-07-20T05:53:26;98984.13;;;33.11;39.65
18527;BME280;9393;42.158;24.748;2023-07-20T05:56:30;98976.97;;;33.42;38.94
18527;BME280;9393;42.158;24.748;2023-07-20T05:59:34;98970.50;;;33.52;38.50
18527;BME280;9393;42.158;24.748;2023-07-20T06:02:38;98966.34;;;33.82;38.05
18527;BME280;9393;42.158;24.748;2023-07-20T06:05:43;98965.16;;;33.74;38.25
18527;BME280;9393;42.158;24.748;2023-07-20T06:08:48;98958.50;;;34.03;37.96
18527;BME280;9393;42.158;24.748;2023-07-20T06:11:52;98955.75;;;33.72;38.00
18527;BME280;9393;42.158;24.748;2023-07-20T06:14:57;98956.66;;;33.89;37.69
18527;BME280;9393;42.158;24.748;2023-07-20T06:18:01;98948.78;;;34.24;37.70
18527;BME280;9393;42.158;24.748;2023-07-20T06:21:06;98954.88;;;34.29;36.97
18527;BME280;9393;42.158;24.748;2023-07-20T06:24:12;98952.19;;;34.38;37.25
18527;BME280;9393;42.158;24.748;2023-07-20T06:27:16;98949.63;;;34.72;36.71
18527;BME280;9393;42.158;24.748;2023-07-20T06:30:20;98942.88;;;35.09;36.15
18527;BME280;9393;42.158;24.748;2023-07-20T06:33:24;98949.47;;;35.17;34.89
18527;BME280;9393;42.158;24.748;2023-07-20T06:36:28;98940.53;;;35.51;34.68
18527;BME280;9393;42.158;24.748;2023-07-20T06:39:34;98942.13;;;35.26;35.45
18527;BME280;9393;42.158;24.748;2023-07-20T06:42:40;98947.81;;;34.98;34.96
18527;BME280;9393;42.158;24.748;2023-07-20T06:45:51;98952.53;;;34.45;35.86
18527;BME280;9393;42.158;24.748;2023-07-20T06:48:56;98945.16;;;35.24;34.84
18527;BME280;9393;42.158;24.748;2023-07-20T06:52:04;98946.28;;;35.58;34.63
18527;BME280;9393;42.158;24.748;2023-07-20T06:55:10;98942.59;;;35.88;34.44
18527;BME280;9393;42.158;24.748;2023-07-20T06:58:14;98940.97;;;36.04;33.96
18527;BME280;9393;42.158;24.748;2023-07-20T07:01:18;98947.38;;;36.00;34.13
18527;BME280;9393;42.158;24.748;2023-07-20T07:04:24;98942.41;;;36.10;34.82
18527;BME280;9393;42.158;24.748;2023-07-20T07:07:28;98944.47;;;36.68;33.92
18527;BME280;9393;42.158;24.748;2023-07-20T07:10:35;98947.81;;;36.65;33.04
18527;BME280;9393;42.158;24.748;2023-07-20T07:13:40;98928.09;;;36.47;33.44
18527;BME280;9393;42.158;24.748;2023-07-20T07:16:44;98936.63;;;36.67;33.31
18527;BME280;9393;42.158;24.748;2023-07-20T07:19:48;98933.78;;;36.17;34.05
18527;BME280;9393;42.158;24.748;2023-07-20T07:22:52;98933.34;;;35.80;34.53
18527;BME280;9393;42.158;24.748;2023-07-20T07:25:59;98928.31;;;36.34;33.58
18527;BME280;9393;42.158;24.748;2023-07-20T07:29:03;98935.66;;;36.71;32.72
18527;BME280;9393;42.158;24.748;2023-07-20T07:32:08;98931.66;;;36.69;32.22
18527;BME280;9393;42.158;24.748;2023-07-20T07:35:12;98932.97;;;36.63;33.28
18527;BME280;9393;42.158;24.748;2023-07-20T07:38:16;98927.56;;;36.54;32.41
18527;BME280;9393;42.158;24.748;2023-07-20T07:41:27;98915.94;;;36.45;32.76
18527;BME280;9393;42.158;24.748;2023-07-20T07:44:31;98921.34;;;36.45;33.23
18527;BME280;9393;42.158;24.748;2023-07-20T07:47:35;98923.19;;;36.24;33.94
18527;BME280;9393;42.158;24.748;2023-07-20T07:50:39;98922.16;;;36.83;32.91
18527;BME280;9393;42.158;24.748;2023-07-20T07:53:44;98916.59;;;37.01;33.42
18527;BME280;9393;42.158;24.748;2023-07-20T07:56:50;98926.84;;;37.45;32.31
18527;BME280;9393;42.158;24.748;2023-07-20T07:59:54;98926.72;;;37.21;31.67
18527;BME280;9393;42.158;24.748;2023-07-20T08:02:58;98924.38;;;37.31;31.54
18527;BME280;9393;42.158;24.748;2023-07-20T08:06:03;98924.19;;;37.36;31.77
18527;BME280;9393;42.158;24.748;2023-07-20T08:09:08;98927.91;;;37.32;31.94
18527;BME280;9393;42.158;24.748;2023-07-20T08:12:13;98920.59;;;37.65;31.00
18527;BME280;9393;42.158;24.748;2023-07-20T08:15:20;98923.72;;;37.34;31.66
18527;BME280;9393;42.158;24.748;2023-07-20T08:18:24;98923.53;;;37.19;31.42
18527;BME280;9393;42.158;24.748;2023-07-20T08:21:29;98923.31;;;37.65;31.42
18527;BME280;9393;42.158;24.748;2023-07-20T08:24:33;98925.53;;;37.72;31.59
18527;BME280;9393;42.158;24.748;2023-07-20T08:27:39;98931.31;;;37.50;30.91
18527;BME280;9393;42.158;24.748;2023-07-20T08:30:44;98939.22;;;37.96;30.90
18527;BME280;9393;42.158;24.748;2023-07-20T08:33:49;98930.97;;;37.84;30.78
18527;BME280;9393;42.158;24.748;2023-07-20T08:36:53;98930.31;;;37.87;30.84
18527;BME280;9393;42.158;24.748;2023-07-20T08:39:57;98936.88;;;38.19;30.29
18527;BME280;9393;42.158;24.748;2023-07-20T08:43:03;98931.03;;;38.41;30.21
18527;BME280;9393;42.158;24.748;2023-07-20T08:46:07;98924.59;;;38.01;30.67
18527;BME280;9393;42.158;24.748;2023-07-20T08:49:12;98925.34;;;37.89;30.65
18527;BME280;9393;42.158;24.748;2023-07-20T08:52:16;98918.94;;;38.18;30.75
18527;BME280;9393;42.158;24.748;2023-07-20T08:55:21;98915.34;;;38.38;30.60
18527;BME280;9393;42.158;24.748;2023-07-20T08:58:27;98916.38;;;38.70;30.18
18527;BME280;9393;42.158;24.748;2023-07-20T09:01:33;98910.03;;;38.90;29.97
18527;BME280;9393;42.158;24.748;2023-07-20T09:04:38;98910.13;;;38.69;29.62
18527;BME280;9393;42.158;24.748;2023-07-20T09:07:43;98896.19;;;39.23;29.23
18527;BME280;9393;42.158;24.748;2023-07-20T09:10:47;98890.50;;;38.52;30.16
18527;BME280;9393;42.158;24.748;2023-07-20T09:14:04;98889.88;;;39.07;29.31
18527;BME280;9393;42.158;24.748;2023-07-20T09:17:12;98889.25;;;39.37;29.11
18527;BME280;9393;42.158;24.748;2023-07-20T09:20:20;98898.69;;;38.88;29.54
18527;BME280;9393;42.158;24.748;2023-07-20T09:23:30;98881.53;;;38.87;29.25
18527;BME280;9393;42.158;24.748;2023-07-20T09:26:40;98873.50;;;39.07;29.26
18527;BME280;9393;42.158;24.748;2023-07-20T09:29:51;98870.28;;;39.29;29.36
18527;BME280;9393;42.158;24.748;2023-07-20T09:32:55;98859.91;;;39.34;28.67
18527;BME280;9393;42.158;24.748;2023-07-20T09:36:02;98859.03;;;39.58;29.06
18527;BME280;9393;42.158;24.748;2023-07-20T09:39:27;98865.28;;;39.31;28.51
18527;BME280;9393;42.158;24.748;2023-07-20T09:42:32;98847.53;;;39.25;29.22
18527;BME280;9393;42.158;24.748;2023-07-20T09:45:42;98842.31;;;38.80;29.32
18527;BME280;9393;42.158;24.748;2023-07-20T09:48:52;98847.41;;;39.06;28.90
18527;BME280;9393;42.158;24.748;2023-07-20T09:52:00;98841.38;;;39.40;29.38
18527;BME280;9393;42.158;24.748;2023-07-20T09:55:08;98836.03;;;39.44;28.31
18527;BME280;9393;42.158;24.748;2023-07-20T09:58:14;98831.22;;;39.68;28.03
18527;BME280;9393;42.158;24.748;2023-07-20T10:01:20;98826.72;;;39.60;27.96
18527;BME280;9393;42.158;24.748;2023-07-20T10:04:28;98831.44;;;39.75;27.63
18527;BME280;9393;42.158;24.748;2023-07-20T10:07:35;98812.31;;;39.32;28.22
18527;BME280;9393;42.158;24.748;2023-07-20T10:10:41;98820.94;;;39.06;28.39
18527;BME280;9393;42.158;24.748;2023-07-20T10:13:48;98823.88;;;39.01;28.36
18527;BME280;9393;42.158;24.748;2023-07-20T10:16:58;98806.31;;;38.99;28.87
18527;BME280;9393;42.158;24.748;2023-07-20T10:20:07;98791.97;;;39.73;27.82
18527;BME280;9393;42.158;24.748;2023-07-20T10:23:13;98785.28;;;39.70;28.22
18527;BME280;9393;42.158;24.748;2023-07-20T10:26:17;98786.31;;;39.22;29.18
18527;BME280;9393;42.158;24.748;2023-07-20T10:29:22;98783.06;;;39.76;28.66
18527;BME280;9393;42.158;24.748;2023-07-20T10:32:28;98777.69;;;39.79;27.20
18527;BME280;9393;42.158;24.748;2023-07-20T10:35:51;98781.25;;;39.36;28.39
18527;BME280;9393;42.158;24.748;2023-07-20T10:38:56;98766.59;;;39.57;27.61
18527;BME280;9393;42.158;24.748;2023-07-20T10:42:01;98768.91;;;39.70;27.53
18527;BME280;9393;42.158;24.748;2023-07-20T10:45:07;98769.50;;;39.95;27.26
18527;BME280;9393;42.158;24.748;2023-07-20T10:48:16;98763.78;;;39.84;26.89
18527;BME280;9393;42.158;24.748;2023-07-20T10:51:21;98764.66;;;40.20;26.57
18527;BME280;9393;42.158;24.748;2023-07-20T10:54:38;98758.75;;;39.86;26.13
18527;BME280;9393;42.158;24.748;2023-07-20T10:58:06;98759.34;;;40.27;26.17
18527;BME280;9393;42.158;24.748;2023-07-20T11:01:14;98743.88;;;40.34;26.10
18527;BME280;9393;42.158;24.748;2023-07-20T11:04:38;98745.41;;;40.32;24.78
18527;BME280;9393;42.158;24.748;2023-07-20T11:07:42;98741.00;;;40.62;24.77
18527;BME280;9393;42.158;24.748;2023-07-20T11:10:49;98739.06;;;40.28;24.88
18527;BME280;9393;42.158;24.748;2023-07-20T11:14:21;98739.06;;;40.28;24.84
18527;BME280;9393;42.158;24.748;2023-07-20T11:17:29;98735.34;;;40.17;25.25
18527;BME280;9393;42.158;24.748;2023-07-20T11:20:35;98742.88;;;40.23;25.84
18527;BME280;9393;42.158;24.748;2023-07-20T11:23:40;98736.41;;;40.85;25.58
18527;BME280;9393;42.158;24.748;2023-07-20T11:26:45;98732.81;;;41.01;24.51
18527;BME280;9393;42.158;24.748;2023-07-20T11:29:49;98729.31;;;41.23;24.55
18527;BME280;9393;42.158;24.748;2023-07-20T11:32:55;98718.53;;;41.11;24.81
18527;BME280;9393;42.158;24.748;2023-07-20T11:36:01;98714.16;;;40.87;24.57
18527;BME280;9393;42.158;24.748;2023-07-20T11:39:26;98714.84;;;40.61;24.35
18527;BME280;9393;42.158;24.748;2023-07-20T11:42:30;98705.75;;;40.76;24.96
18527;BME280;9393;42.158;24.748;2023-07-20T11:45:37;98704.59;;;40.97;24.81
18527;BME280;9393;42.158;24.748;2023-07-20T11:48:42;98704.47;;;40.70;25.15
18527;BME280;9393;42.158;24.748;2023-07-20T11:51:47;98697.69;;;40.83;24.69
18527;BME280;9393;42.158;24.748;2023-07-20T11:54:52;98700.34;;;40.80;25.08
18527;BME280;9393;42.158;24.748;2023-07-20T11:58:03;98699.34;;;40.50;25.24
18527;BME280;9393;42.158;24.748;2023-07-20T12:01:07;98693.53;;;40.70;25.64
18527;BME280;9393;42.158;24.748;2023-07-20T12:04:13;98695.13;;;40.71;25.28
18527;BME280;9393;42.158;24.748;2023-07-20T12:07:20;98678.28;;;40.69;25.06
18527;BME280;9393;42.158;24.748;2023-07-20T12:10:25;98685.00;;;40.95;25.46
18527;BME280;9393;42.158;24.748;2023-07-20T12:13:40;98673.97;;;40.68;25.75
18527;BME280;9393;42.158;24.748;2023-07-20T12:16:44;98664.72;;;40.96;25.16
18527;BME280;9393;42.158;24.748;2023-07-20T12:19:57;98657.25;;;40.93;25.11
18527;BME280;9393;42.158;24.748;2023-07-20T12:23:05;98655.34;;;41.16;25.25
18527;BME280;9393;42.158;24.748;2023-07-20T12:26:10;98651.50;;;40.98;25.58
18527;BME280;9393;42.158;24.748;2023-07-20T12:29:14;98640.66;;;40.82;25.43
18527;BME280;9393;42.158;24.748;2023-07-20T12:32:18;98630.28;;;41.14;25.20
18527;BME280;9393;42.158;24.748;2023-07-20T12:35:22;98618.88;;;41.34;24.95
18527;BME280;9393;42.158;24.748;2023-07-20T12:38:28;98605.50;;;40.61;25.68
18527;BME280;9393;42.158;24.748;2023-07-20T12:41:33;98605.47;;;41.03;25.49
18527;BME280;9393;42.158;24.748;2023-07-20T12:44:37;98601.47;;;40.97;25.63
18527;BME280;9393;42.158;24.748;2023-07-20T12:47:41;98595.06;;;41.35;25.47
18527;BME280;9393;42.158;24.748;2023-07-20T12:50:46;98607.56;;;41.10;25.72
18527;BME280;9393;42.158;24.748;2023-07-20T12:53:51;98597.88;;;40.70;25.53
18527;BME280;9393;42.158;24.748;2023-07-20T12:56:56;98604.38;;;40.85;25.22
18527;BME280;9393;42.158;24.748;2023-07-20T13:00:05;98615.66;;;41.03;25.29
18527;BME280;9393;42.158;24.748;2023-07-20T13:03:10;98623.94;;;40.87;25.22
18527;BME280;9393;42.158;24.748;2023-07-20T13:06:31;98613.63;;;40.19;26.07
18527;BME280;9393;42.158;24.748;2023-07-20T13:09:40;98626.78;;;40.14;26.08
18527;BME280;9393;42.158;24.748;2023-07-20T13:12:45;98619.00;;;40.35;26.29
18527;BME280;9393;42.158;24.748;2023-07-20T13:15:49;98625.47;;;40.46;25.92
18527;BME280;9393;42.158;24.748;2023-07-20T13:18:53;98628.56;;;40.45;25.95
18527;BME280;9393;42.158;24.748;2023-07-20T13:21:57;98629.25;;;40.57;25.80
18527;BME280;9393;42.158;24.748;2023-07-20T13:25:03;98627.66;;;40.56;25.62
18527;BME280;9393;42.158;24.748;2023-07-20T13:28:07;98617.94;;;40.40;25.31
18527;BME280;9393;42.158;24.748;2023-07-20T13:31:11;98626.50;;;40.57;25.72
18527;BME280;9393;42.158;24.748;2023-07-20T13:34:17;98624.06;;;40.71;25.65
18527;BME280;9393;42.158;24.748;2023-07-20T13:37:21;98614.06;;;40.82;25.37
18527;BME280;9393;42.158;24.748;2023-07-20T13:40:27;98612.19;;;40.86;25.69
18527;BME280;9393;42.158;24.748;2023-07-20T13:43:30;98619.66;;;40.90;25.48
18527;BME280;9393;42.158;24.748;2023-07-20T13:46:34;98617.19;;;40.81;25.82
18527;BME280;9393;42.158;24.748;2023-07-20T13:49:43;98602.06;;;40.87;24.93
18527;BME280;9393;42.158;24.748;2023-07-20T13:52:49;98613.31;;;40.82;24.78
18527;BME280;9393;42.158;24.748;2023-07-20T13:56:14;98612.06;;;40.99;24.15
18527;BME280;9393;42.158;24.748;2023-07-20T13:59:22;98608.72;;;40.90;23.82
18527;BME280;9393;42.158;24.748;2023-07-20T14:02:26;98601.69;;;40.47;23.77
18527;BME280;9393;42.158;24.748;2023-07-20T14:05:33;98606.66;;;40.83;23.85
18527;BME280;9393;42.158;24.748;2023-07-20T14:08:40;98601.25;;;40.64;23.91
18527;BME280;9393;42.158;24.748;2023-07-20T14:11:46;98588.38;;;40.64;23.62
18527;BME280;9393;42.158;24.748;2023-07-20T14:14:54;98592.75;;;40.50;24.59
18527;BME280;9393;42.158;24.748;2023-07-20T14:17:58;98594.88;;;40.56;24.67
18527;BME280;9393;42.158;24.748;2023-07-20T14:21:03;98581.28;;;40.60;24.42
18527;BME280;9393;42.158;24.748;2023-07-20T14:24:10;98584.56;;;40.92;24.46
18527;BME280;9393;42.158;24.748;2023-07-20T14:27:16;98573.59;;;40.69;23.99
18527;BME280;9393;42.158;24.748;2023-07-20T14:30:20;98574.53;;;40.76;23.60
18527;BME280;9393;42.158;24.748;2023-07-20T14:33:24;98566.22;;;40.92;23.06
18527;BME280;9393;42.158;24.748;2023-07-20T14:36:30;98562.94;;;40.83;23.07
18527;BME280;9393;42.158;24.748;2023-07-20T14:39:36;98566.53;;;41.10;22.95
18527;BME280;9393;42.158;24.748;2023-07-20T14:42:41;98557.72;;;41.20;23.54
18527;BME280;9393;42.158;24.748;2023-07-20T14:45:45;98560.16;;;41.02;23.72
18527;BME280;9393;42.158;24.748;2023-07-20T14:48:49;98562.16;;;41.05;23.58
18527;BME280;9393;42.158;24.748;2023-07-20T14:51:54;98571.75;;;40.96;23.31
18527;BME280;9393;42.158;24.748;2023-07-20T14:55:01;98572.66;;;41.03;21.88
18527;BME280;9393;42.158;24.748;2023-07-20T14:58:07;98585.34;;;41.15;21.77
18527;BME280;9393;42.158;24.748;2023-07-20T15:01:11;98578.38;;;40.72;21.60
18527;BME280;9393;42.158;24.748;2023-07-20T15:04:16;98593.50;;;40.89;21.51
18527;BME280;9393;42.158;24.748;2023-07-20T15:07:21;98596.13;;;40.81;21.13
18527;BME280;9393;42.158;24.748;2023-07-20T15:10:25;98596.66;;;40.91;21.54
18527;BME280;9393;42.158;24.748;2023-07-20T15:13:30;98605.66;;;40.68;21.56
18527;BME280;9393;42.158;24.748;2023-07-20T15:16:35;98606.94;;;40.55;22.00
18527;BME280;9393;42.158;24.748;2023-07-20T15:19:39;98612.97;;;40.45;22.64
18527;BME280;9393;42.158;24.748;2023-07-20T15:22:43;98612.84;;;40.57;22.80
18527;BME280;9393;42.158;24.748;2023-07-20T15:25:51;98618.22;;;40.54;22.06
18527;BME280;9393;42.158;24.748;2023-07-20T15:28:56;98614.47;;;40.43;22.74
18527;BME280;9393;42.158;24.748;2023-07-20T15:32:00;98625.84;;;40.45;22.36
18527;BME280;9393;42.158;24.748;2023-07-20T15:35:05;98629.16;;;40.54;23.06
18527;BME280;9393;42.158;24.748;2023-07-20T15:38:09;98631.47;;;40.32;23.51
18527;BME280;9393;42.158;24.748;2023-07-20T15:41:13;98626.34;;;40.12;23.52
18527;BME280;9393;42.158;24.748;2023-07-20T15:44:19;98636.72;;;39.87;23.46
18527;BME280;9393;42.158;24.748;2023-07-20T15:47:24;98639.22;;;39.45;23.91
18527;BME280;9393;42.158;24.748;2023-07-20T15:50:28;98629.47;;;39.44;23.35
18527;BME280;9393;42.158;24.748;2023-07-20T15:53:32;98633.31;;;39.59;23.76
18527;BME280;9393;42.158;24.748;2023-07-20T15:56:37;98627.63;;;39.32;23.99
18527;BME280;9393;42.158;24.748;2023-07-20T15:59:43;98625.69;;;39.33;24.15
18527;BME280;9393;42.158;24.748;2023-07-20T16:02:47;98631.84;;;39.46;24.06
18527;BME280;9393;42.158;24.748;2023-07-20T16:05:52;98634.75;;;39.37;23.92
18527;BME280;9393;42.158;24.748;2023-07-20T16:08:57;98639.25;;;39.29;23.99
18527;BME280;9393;42.158;24.748;2023-07-20T16:12:01;98642.91;;;39.06;24.51
18527;BME280;9393;42.158;24.748;2023-07-20T16:15:09;98643.69;;;39.06;24.49
18527;BME280;9393;42.158;24.748;2023-07-20T16:18:13;98647.38;;;39.14;24.84
18527;BME280;9393;42.158;24.748;2023-07-20T16:21:17;98650.47;;;39.12;24.63
18527;BME280;9393;42.158;24.748;2023-07-20T16:24:21;98652.03;;;38.98;24.86